Time;durP1;ratioP1;P1;durP2;ratioP2;P2;SDS_P1;SDS_P2;PMS_P1;PMS_P2;Temp;Humidity;BMP_temperature;BMP_pressure;BME280_temperature;BME280_humidity;BME280_pressure;Samples;Min_cycle;Max_cycle;Signal;HPM_P1;HPM_P2
2023/02/26 00:01:16;;;;;;;6.30;4.50;;;;;;;0.60;79.07;99387.02;129710;1258;116489;-63
2023/02/26 00:04:18;;;;;;;7.50;4.20;;;;;;;0.57;78.95;99389.03;129878;1276;114746;-62
2023/02/26 00:07:21;;;;;;;10.60;4.80;;;;;;;0.54;78.87;99395.06;129957;1276;114732;-64
2023/02/26 00:10:23;;;;;;;7.80;4.20;;;;;;;0.54;78.68;99398.59;130136;1275;114711;-61
2023/02/26 00:13:26;;;;;;;8.70;4.30;;;;;;;0.51;78.90;99401.98;130292;1276;114813;-60
2023/02/26 00:16:32;;;;;;;7.10;3.60;;;;;;;0.49;78.91;99399.74;129823;1259;114843;-62
2023/02/26 00:19:35;;;;;;;9.40;4.20;;;;;;;0.49;78.85;99400.64;129782;1263;114968;-62
2023/02/26 00:22:41;;;;;;;6.10;4.10;;;;;;;0.48;79.07;99404.18;130082;1270;114769;-61
2023/02/26 00:25:44;;;;;;;9.80;4.40;;;;;;;0.45;78.90;99407.39;130041;1260;129084;-61
2023/02/26 00:28:47;;;;;;;10.20;4.20;;;;;;;0.43;78.64;99411.48;130056;1276;115218;-64
2023/02/26 00:31:49;;;;;;;8.90;4.20;;;;;;;0.40;78.56;99412.07;130036;1257;115394;-62
2023/02/26 00:34:52;;;;;;;6.00;3.90;;;;;;;0.37;78.74;99411.10;130094;1253;114839;-61
2023/02/26 00:38:00;;;;;;;11.50;5.00;;;;;;;0.35;78.64;99416.75;130008;1270;115145;-62
2023/02/26 00:41:03;;;;;;;7.90;4.20;;;;;;;0.33;78.83;99415.92;129888;1272;126849;-60
2023/02/26 00:44:06;;;;;;;7.20;4.50;;;;;;;0.33;78.97;99421.02;129952;1276;114859;-61
2023/02/26 00:47:11;;;;;;;8.90;4.70;;;;;;;0.31;78.87;99423.16;130158;1257;114820;-61
2023/02/26 00:50:23;;;;;;;6.70;4.50;;;;;;;0.28;78.54;99421.64;129708;1258;114967;-65
2023/02/26 00:53:47;;;;;;;7.10;4.20;;;;;;;0.27;78.65;99427.63;129978;1270;114789;-60
2023/02/26 00:56:50;;;;;;;10.50;4.80;;;;;;;0.27;78.79;99431.67;129971;1274;128776;-63
2023/02/26 00:59:53;;;;;;;5.70;3.80;;;;;;;0.27;78.68;99430.96;129925;1271;115158;-62
2023/02/26 01:02:56;;;;;;;5.90;3.80;;;;;;;0.27;78.71;99427.80;130005;1273;114774;-64
2023/02/26 01:05:59;;;;;;;7.40;4.40;;;;;;;0.26;78.91;99426.06;130086;1256;114823;-63
2023/02/26 01:09:07;;;;;;;7.80;4.40;;;;;;;0.26;78.83;99431.16;130085;1270;114708;-62
2023/02/26 01:12:16;;;;;;;8.40;3.60;;;;;;;0.24;78.84;99428.22;129984;1254;128716;-62
2023/02/26 01:15:19;;;;;;;7.90;4.40;;;;;;;0.23;78.70;99436.86;129866;1262;115279;-64
2023/02/26 01:18:28;;;;;;;10.30;3.90;;;;;;;0.25;78.85;99440.70;130063;1256;114811;-64
2023/02/26 01:21:36;;;;;;;9.40;4.10;;;;;;;0.24;79.13;99449.14;129700;1274;114832;-63
2023/02/26 01:24:39;;;;;;;7.90;4.70;;;;;;;0.22;78.97;99451.27;129675;1276;399337;-66
2023/02/26 01:27:42;;;;;;;7.20;4.50;;;;;;;0.21;79.11;99454.45;129948;1276;114787;-62
2023/02/26 01:30:44;;;;;;;8.10;4.10;;;;;;;0.21;79.04;99458.51;129899;1276;115187;-65
2023/02/26 01:33:52;;;;;;;9.20;4.80;;;;;;;0.20;78.99;99463.25;130054;1270;115343;-61
2023/02/26 01:37:33;;;;;;;7.40;4.00;;;;;;;0.19;79.21;99465.90;129958;1276;114812;-60
2023/02/26 01:40:45;;;;;;;8.60;3.80;;;;;;;0.18;79.04;99470.14;129683;1262;114952;-62
2023/02/26 01:44:09;;;;;;;8.00;4.30;;;;;;;0.17;79.22;99473.49;129994;1276;127451;-64
2023/02/26 01:47:20;;;;;;;7.80;4.80;;;;;;;0.18;79.40;99474.70;129943;1257;115259;-61
2023/02/26 01:50:28;;;;;;;6.70;4.70;;;;;;;0.21;79.50;99477.98;130070;1276;114772;-61
2023/02/26 01:53:31;;;;;;;7.10;4.50;;;;;;;0.22;79.53;99484.13;129832;1258;114714;-65
2023/02/26 01:56:34;;;;;;;6.20;4.00;;;;;;;0.24;79.52;99489.88;129938;1257;115178;-62
2023/02/26 01:59:40;;;;;;;7.40;4.00;;;;;;;0.24;79.59;99494.95;129899;1257;114841;-61
2023/02/26 02:02:43;;;;;;;5.80;4.70;;;;;;;0.24;79.49;99496.38;129842;1260;115223;-62
2023/02/26 02:06:11;;;;;;;7.30;4.40;;;;;;;0.25;79.57;99497.23;130140;1258;115314;-62
2023/02/26 02:09:14;;;;;;;7.50;4.70;;;;;;;0.27;79.67;99502.10;129740;1256;114914;-62
2023/02/26 02:12:38;;;;;;;8.90;4.50;;;;;;;0.27;79.86;99504.90;130099;1272;114830;-61
2023/02/26 02:15:51;;;;;;;9.00;5.20;;;;;;;0.28;79.58;99511.04;130021;1276;129027;-63
2023/02/26 02:19:26;;;;;;;6.90;4.40;;;;;;;0.29;79.60;99515.75;129993;1276;115282;-60
2023/02/26 02:22:54;;;;;;;9.40;4.80;;;;;;;0.28;79.97;99515.42;130263;1254;114839;-63
2023/02/26 02:25:56;;;;;;;7.60;4.60;;;;;;;0.27;79.62;99520.17;130004;1256;114724;-62
2023/02/26 02:29:20;;;;;;;9.00;5.70;;;;;;;0.28;79.71;99526.84;130027;1276;114852;-60
2023/02/26 02:32:37;;;;;;;6.70;3.70;;;;;;;0.28;79.89;99532.09;130137;1267;128773;-61
2023/02/26 02:35:41;;;;;;;6.50;4.40;;;;;;;0.29;79.80;99534.70;129790;1254;116484;-61
2023/02/26 02:39:02;;;;;;;8.40;4.40;;;;;;;0.31;79.73;99538.38;129712;1257;115861;-61
2023/02/26 02:42:19;;;;;;;11.00;4.50;;;;;;;0.30;79.73;99548.92;129794;1256;114870;-64
2023/02/26 02:45:27;;;;;;;4.30;3.60;;;;;;;0.30;79.68;99556.29;130063;1256;114751;-60
2023/02/26 02:48:40;;;;;;;8.40;4.20;;;;;;;0.30;79.69;99556.30;129740;1262;127878;-62
2023/02/26 02:51:53;;;;;;;6.20;3.90;;;;;;;0.31;79.71;99561.55;129940;1256;115252;-61
2023/02/26 02:55:01;;;;;;;5.50;3.80;;;;;;;0.30;79.59;99570.70;130050;1256;115189;-61
2023/02/26 02:58:11;;;;;;;4.70;3.10;;;;;;;0.28;79.30;99571.64;129671;1267;114851;-62
2023/02/26 03:01:15;;;;;;;6.60;3.50;;;;;;;0.25;79.24;99575.20;129941;1256;114750;-61
2023/02/26 03:04:18;;;;;;;6.60;3.40;;;;;;;0.23;79.12;99582.27;129758;1260;127693;-61
2023/02/26 03:07:20;;;;;;;8.30;4.00;;;;;;;0.20;78.85;99581.78;129851;1257;115176;-62
2023/02/26 03:10:23;;;;;;;6.50;3.30;;;;;;;0.18;79.01;99593.40;129943;1256;114828;-61
2023/02/26 03:13:26;;;;;;;4.50;3.10;;;;;;;0.16;78.76;99594.16;130088;1256;114725;-63
2023/02/26 03:16:46;;;;;;;3.50;3.10;;;;;;;0.15;79.01;99596.27;129731;1258;114738;-61
2023/02/26 03:20:04;;;;;;;5.50;3.30;;;;;;;0.13;78.78;99602.44;129749;1276;114740;-61
2023/02/26 03:23:19;;;;;;;4.30;2.80;;;;;;;0.10;78.73;99607.94;129986;1276;128995;-61
2023/02/26 03:26:30;;;;;;;5.50;3.00;;;;;;;0.09;78.68;99617.98;129958;1276;115275;-62
2023/02/26 03:29:42;;;;;;;4.50;3.00;;;;;;;0.08;78.57;99626.07;129759;1261;114917;-61
2023/02/26 03:32:56;;;;;;;4.80;3.00;;;;;;;0.06;78.70;99633.29;129729;1257;114892;-61
2023/02/26 03:36:18;;;;;;;4.50;3.40;;;;;;;0.05;78.49;99642.80;129932;1277;114659;-64
2023/02/26 03:39:38;;;;;;;5.20;2.70;;;;;;;0.04;78.63;99649.84;129928;1259;128855;-63
2023/02/26 03:42:48;;;;;;;5.20;3.20;;;;;;;0.03;78.50;99656.89;129788;1277;115244;-61
2023/02/26 03:45:53;;;;;;;5.30;2.70;;;;;;;0.02;78.38;99661.29;129962;1261;114967;-61
2023/02/26 03:48:57;;;;;;;4.00;2.70;;;;;;;-0.01;78.48;99665.55;129878;1254;114770;-65
2023/02/26 03:52:00;;;;;;;5.10;3.30;;;;;;;-0.03;78.43;99670.68;129959;1258;114797;-63
2023/02/26 03:55:14;;;;;;;6.80;3.20;;;;;;;-0.05;78.58;99671.41;129838;1277;114824;-61
2023/02/26 03:58:21;;;;;;;4.10;2.90;;;;;;;-0.06;78.52;99680.73;129756;1275;116386;-61
2023/02/26 04:01:35;;;;;;;3.80;2.70;;;;;;;-0.08;78.60;99678.99;129737;1276;114748;-61
2023/02/26 04:05:04;;;;;;;5.70;3.00;;;;;;;-0.07;78.54;99682.31;129721;1267;114946;-61
2023/02/26 04:08:07;;;;;;;2.80;2.50;;;;;;;-0.06;78.76;99683.88;129916;1257;114747;-62
2023/02/26 04:11:19;;;;;;;7.10;3.50;;;;;;;-0.06;78.64;99688.45;129976;1258;115433;-65
2023/02/26 04:14:21;;;;;;;6.10;2.70;;;;;;;-0.05;78.74;99689.30;129931;1277;115220;-60
2023/02/26 04:17:24;;;;;;;5.10;3.00;;;;;;;-0.05;78.74;99692.29;130110;1253;114756;-61
2023/02/26 04:20:27;;;;;;;5.20;3.20;;;;;;;-0.07;78.39;99695.48;130139;1257;115134;-65
2023/02/26 04:23:29;;;;;;;10.80;3.30;;;;;;;-0.09;78.39;99704.30;130062;1277;114866;-61
2023/02/26 04:26:32;;;;;;;5.80;2.70;;;;;;;-0.12;78.34;99706.11;130142;1258;114718;-60
2023/02/26 04:29:34;;;;;;;4.00;2.20;;;;;;;-0.15;78.23;99710.54;129970;1258;127540;-63
2023/02/26 04:32:37;;;;;;;7.30;3.10;;;;;;;-0.18;78.25;99710.58;130063;1276;115160;-60
2023/02/26 04:35:40;;;;;;;3.30;2.60;;;;;;;-0.20;78.38;99708.67;130177;1254;114754;-61
2023/02/26 04:38:42;;;;;;;2.70;2.20;;;;;;;-0.21;78.18;99713.42;130048;1276;115121;-61
2023/02/26 04:41:45;;;;;;;4.10;2.60;;;;;;;-0.22;78.40;99714.14;129982;1256;114830;-61
2023/02/26 04:44:47;;;;;;;5.20;2.70;;;;;;;-0.22;78.34;99715.90;129999;1276;114711;-61
2023/02/26 04:47:50;;;;;;;3.90;2.70;;;;;;;-0.24;78.16;99722.42;130031;1276;115389;-64
2023/02/26 04:50:52;;;;;;;5.50;3.10;;;;;;;-0.26;78.22;99727.54;130106;1276;114881;-64
2023/02/26 04:53:55;;;;;;;4.90;2.90;;;;;;;-0.26;78.18;99732.27;130081;1256;114779;-61
2023/02/26 04:56:57;;;;;;;3.70;2.80;;;;;;;-0.25;78.31;99737.89;129819;1254;114779;-61
2023/02/26 05:00:00;;;;;;;3.20;2.30;;;;;;;-0.27;78.27;99738.45;129951;1256;114776;-63
2023/02/26 05:03:03;;;;;;;5.90;3.20;;;;;;;-0.29;78.00;99743.55;130260;1276;114765;-61
2023/02/26 05:06:06;;;;;;;4.70;2.80;;;;;;;-0.32;77.81;99743.93;130205;1276;115166;-62
2023/02/26 05:09:09;;;;;;;5.20;3.00;;;;;;;-0.34;77.82;99748.89;130003;1276;114780;-60
2023/02/26 05:12:11;;;;;;;3.00;2.40;;;;;;;-0.35;78.00;99753.81;130040;1256;114738;-62
2023/02/26 05:15:14;;;;;;;7.60;2.60;;;;;;;-0.38;77.94;99756.13;130020;1272;114780;-62
2023/02/26 05:18:17;;;;;;;5.20;2.70;;;;;;;-0.39;77.96;99757.02;129952;1256;114747;-63
2023/02/26 05:21:20;;;;;;;5.00;2.50;;;;;;;-0.39;78.33;99758.94;130032;1276;114728;-60
2023/02/26 05:24:23;;;;;;;3.30;2.50;;;;;;;-0.39;78.15;99764.04;129965;1276;114737;-61
2023/02/26 05:27:26;;;;;;;5.40;2.30;;;;;;;-0.40;78.16;99763.52;129977;1276;114796;-63
2023/02/26 05:30:28;;;;;;;5.50;2.60;;;;;;;-0.40;78.12;99772.11;130022;1256;114776;-61
2023/02/26 05:33:31;;;;;;;4.40;2.30;;;;;;;-0.39;78.13;99777.54;130036;1256;115287;-61
2023/02/26 05:36:34;;;;;;;6.20;2.40;;;;;;;-0.38;78.18;99784.20;130037;1254;115006;-60
2023/02/26 05:39:36;;;;;;;4.10;2.00;;;;;;;-0.37;78.00;99785.59;129966;1276;114754;-61
2023/02/26 05:42:39;;;;;;;2.60;1.90;;;;;;;-0.36;77.99;99790.66;130082;1272;114748;-62
2023/02/26 05:45:41;;;;;;;2.80;2.10;;;;;;;-0.36;78.01;99791.36;130080;1256;114804;-61
2023/02/26 05:48:44;;;;;;;4.90;2.40;;;;;;;-0.34;77.88;99800.46;130121;1256;115376;-60
2023/02/26 05:51:47;;;;;;;3.70;1.90;;;;;;;-0.34;77.85;99808.35;129689;1254;115335;-61
2023/02/26 05:54:50;;;;;;;3.20;2.20;;;;;;;-0.33;78.03;99814.11;130026;1257;114744;-63
2023/02/26 05:57:53;;;;;;;3.00;2.10;;;;;;;-0.31;77.90;99818.32;130043;1253;114801;-61
2023/02/26 06:00:57;;;;;;;3.10;2.40;;;;;;;-0.30;77.84;99819.19;130036;1253;114800;-61
2023/02/26 06:03:59;;;;;;;2.90;2.10;;;;;;;-0.27;77.93;99828.81;129984;1260;114710;-60
2023/02/26 06:07:02;;;;;;;3.70;2.70;;;;;;;-0.24;77.91;99837.54;130094;1257;115184;-62
2023/02/26 06:10:07;;;;;;;5.60;2.80;;;;;;;-0.22;77.98;99838.39;130018;1277;114761;-61
2023/02/26 06:13:09;;;;;;;4.10;2.20;;;;;;;-0.20;77.84;99847.14;129996;1254;114738;-61
2023/02/26 06:16:11;;;;;;;4.00;2.70;;;;;;;-0.19;77.68;99852.21;129933;1257;114827;-64
2023/02/26 06:19:13;;;;;;;6.70;3.50;;;;;;;-0.16;77.99;99860.42;129942;1257;114732;-61
2023/02/26 06:22:16;;;;;;;7.10;2.30;;;;;;;-0.13;78.03;99864.06;129572;1263;114920;-63
2023/02/26 06:25:19;;;;;;;4.50;2.60;;;;;;;-0.08;78.02;99870.15;130041;1276;115272;-64
2023/02/26 06:28:23;;;;;;;4.50;2.20;;;;;;;-0.04;77.74;99875.71;130142;1256;115093;-64
2023/02/26 06:31:25;;;;;;;5.20;2.70;;;;;;;0.03;77.67;99882.99;130050;1253;115268;-63
2023/02/26 06:34:28;;;;;;;4.60;3.10;;;;;;;0.07;77.75;99889.09;129959;1269;114736;-66
2023/02/26 06:37:30;;;;;;;3.90;2.60;;;;;;;0.11;77.49;99892.02;129995;1252;114722;-61
2023/02/26 06:40:32;;;;;;;3.00;2.30;;;;;;;0.13;77.48;99897.44;129841;1261;114926;-64
2023/02/26 06:43:35;;;;;;;3.50;2.30;;;;;;;0.14;77.52;99901.99;129960;1254;114712;-62
2023/02/26 06:46:37;;;;;;;4.70;2.80;;;;;;;0.17;77.19;99909.33;130294;1254;114709;-62
2023/02/26 06:49:40;;;;;;;4.50;2.90;;;;;;;0.19;77.45;99905.61;130221;1276;114830;-61
2023/02/26 06:52:42;;;;;;;6.00;3.00;;;;;;;0.23;77.31;99911.01;130335;1254;114751;-61
2023/02/26 06:55:46;;;;;;;6.10;3.40;;;;;;;0.26;77.12;99914.82;130012;1256;129142;-63
2023/02/26 06:58:49;;;;;;;4.60;2.90;;;;;;;0.33;77.42;99916.66;129630;1254;116590;-64
2023/02/26 07:01:51;;;;;;;4.00;2.60;;;;;;;0.38;77.03;99919.05;129988;1256;114823;-61
2023/02/26 07:04:53;;;;;;;5.10;2.80;;;;;;;0.41;76.84;99926.90;130129;1256;114754;-60
2023/02/26 07:07:56;;;;;;;6.00;2.60;;;;;;;0.45;76.92;99927.73;130188;1256;114798;-64
2023/02/26 07:10:59;;;;;;;5.10;2.60;;;;;;;0.49;76.57;99936.30;129621;1257;115477;-64
2023/02/26 07:14:02;;;;;;;3.20;2.60;;;;;;;0.50;76.04;99944.19;129719;1253;128690;-63
2023/02/26 07:17:04;;;;;;;6.60;2.40;;;;;;;0.49;75.88;99951.41;129921;1256;114727;-65
2023/02/26 07:20:08;;;;;;;5.10;2.60;;;;;;;0.48;75.79;99958.81;130091;1256;114758;-65
2023/02/26 07:23:11;;;;;;;4.50;2.50;;;;;;;0.45;75.71;99961.64;129968;1254;114813;-65
2023/02/26 07:26:13;;;;;;;3.60;2.70;;;;;;;0.46;75.95;99963.22;130184;1254;114734;-64
2023/02/26 07:29:16;;;;;;;4.80;3.20;;;;;;;0.51;76.22;99970.18;130313;1252;115582;-64
2023/02/26 07:32:18;;;;;;;8.50;4.40;;;;;;;0.54;76.06;99981.91;129967;1276;129334;-64
2023/02/26 07:35:20;;;;;;;6.10;3.10;;;;;;;0.55;75.79;99983.64;130082;1276;114820;-63
2023/02/26 07:38:23;;;;;;;9.20;4.50;;;;;;;0.56;75.98;99992.08;130148;1254;115366;-64
2023/02/26 07:41:25;;;;;;;8.30;3.80;;;;;;;0.57;75.84;99996.46;130201;1256;115102;-65
2023/02/26 07:44:28;;;;;;;4.20;2.90;;;;;;;0.60;76.06;99997.45;129924;1260;114753;-64
2023/02/26 07:47:31;;;;;;;4.20;3.00;;;;;;;0.63;75.83;100005.69;130025;1276;114788;-65
2023/02/26 07:50:33;;;;;;;7.20;4.00;;;;;;;0.61;75.61;100007.46;130027;1256;114801;-63
2023/02/26 07:53:36;;;;;;;5.50;3.50;;;;;;;0.61;75.79;100009.23;130057;1256;114748;-65
2023/02/26 07:56:40;;;;;;;6.20;3.70;;;;;;;0.63;76.01;100015.17;129787;1276;116580;-64
2023/02/26 07:59:42;;;;;;;7.70;3.80;;;;;;;0.69;76.18;100016.49;130170;1256;114727;-63
2023/02/26 08:02:45;;;;;;;4.40;3.50;;;;;;;0.76;76.05;100027.65;130097;1254;114741;-64
2023/02/26 08:05:47;;;;;;;4.50;3.20;;;;;;;0.80;75.86;100031.13;130146;1267;115413;-64
2023/02/26 08:08:50;;;;;;;9.80;5.90;;;;;;;0.80;75.48;100037.61;130085;1256;115180;-62
2023/02/26 08:11:52;;;;;;;7.00;4.70;;;;;;;0.83;75.72;100041.62;129958;1253;114749;-64
2023/02/26 08:14:55;;;;;;;13.00;6.40;;;;;;;0.90;75.52;100042.75;129691;1276;115256;-65
2023/02/26 08:17:58;;;;;;;7.60;4.30;;;;;;;0.96;75.60;100045.65;130043;1254;114733;-65
2023/02/26 08:21:00;;;;;;;6.00;4.10;;;;;;;1.02;76.02;100045.22;130013;1256;114780;-64
2023/02/26 08:24:03;;;;;;;7.50;3.90;;;;;;;1.09;76.11;100048.27;130006;1254;114728;-65
2023/02/26 08:27:06;;;;;;;3.60;2.50;;;;;;;1.17;75.83;100052.91;130093;1256;115195;-64
2023/02/26 08:30:12;;;;;;;6.20;4.30;;;;;;;1.18;75.32;100056.77;129944;1276;129017;-64
2023/02/26 08:33:14;;;;;;;8.80;5.20;;;;;;;1.24;75.66;100064.95;129788;1256;116459;-65
2023/02/26 08:36:17;;;;;;;5.30;3.90;;;;;;;1.27;75.28;100073.17;130029;1257;115241;-63
2023/02/26 08:39:19;;;;;;;5.30;3.90;;;;;;;1.31;75.21;100074.52;130124;1256;114737;-66
2023/02/26 08:42:22;;;;;;;6.90;3.60;;;;;;;1.40;75.38;100075.44;130063;1254;114727;-65
2023/02/26 08:45:24;;;;;;;12.30;4.60;;;;;;;1.48;75.09;100087.99;130000;1260;114789;-65
2023/02/26 08:48:27;;;;;;;10.40;4.30;;;;;;;1.53;75.23;100096.89;130100;1269;115306;-61
2023/02/26 08:51:30;;;;;;;8.70;4.00;;;;;;;1.53;75.10;100101.63;130019;1258;114791;-64
2023/02/26 08:54:32;;;;;;;4.90;3.60;;;;;;;1.53;74.79;100106.39;130017;1276;114796;-65
2023/02/26 08:57:35;;;;;;;5.60;3.80;;;;;;;1.51;74.41;100111.52;130044;1268;114708;-64
2023/02/26 09:00:37;;;;;;;7.00;4.50;;;;;;;1.46;74.09;100113.89;129963;1276;114753;-62
2023/02/26 09:03:40;;;;;;;5.70;3.80;;;;;;;1.44;74.78;100119.89;129973;1276;114766;-64
2023/02/26 09:06:42;;;;;;;8.00;4.10;;;;;;;1.43;74.35;100123.96;130000;1259;114722;-65
2023/02/26 09:09:45;;;;;;;8.90;4.60;;;;;;;1.44;74.69;100119.38;130029;1254;114797;-66
2023/02/26 09:12:48;;;;;;;6.40;4.20;;;;;;;1.45;74.57;100130.80;130164;1256;114736;-63
2023/02/26 09:15:50;;;;;;;6.30;4.00;;;;;;;1.46;74.93;100133.25;130079;1254;114731;-66
2023/02/26 09:18:52;;;;;;;11.70;4.30;;;;;;;1.50;74.97;100143.92;130030;1267;116479;-65
2023/02/26 09:21:55;;;;;;;9.40;4.30;;;;;;;1.54;74.91;100150.02;129675;1262;114914;-65
2023/02/26 09:24:57;;;;;;;7.10;4.10;;;;;;;1.56;74.42;100153.54;130112;1267;115317;-66
2023/02/26 09:28:00;;;;;;;8.10;4.30;;;;;;;1.59;74.83;100159.27;130067;1276;129586;-62
2023/02/26 09:31:05;;;;;;;7.50;4.30;;;;;;;1.66;75.00;100160.94;130196;1276;114788;-63
2023/02/26 09:34:08;;;;;;;;;;;;;;;1.75;74.64;100165.38;129726;1256;114901;-62
2023/02/26 09:37:10;;;;;;;8.10;3.90;;;;;;;1.84;74.78;100168.92;130120;1254;114741;-61
2023/02/26 09:40:34;;;;;;;7.90;3.90;;;;;;;2.00;74.72;100169.02;129960;1253;114911;-66
2023/02/26 09:43:48;;;;;;;6.00;4.10;;;;;;;2.15;74.29;100177.41;129619;1254;114911;-65
2023/02/26 09:47:38;;;;;;;6.80;3.10;;;;;;;2.20;73.95;100180.14;129827;1276;128316;-61
2023/02/26 09:50:47;;;;;;;5.80;3.90;;;;;;;2.18;73.89;100189.52;129204;1284;115292;-65
2023/02/26 09:53:51;;;;;;;6.40;3.70;;;;;;;2.16;73.20;100192.71;129349;1262;114851;-66
2023/02/26 09:56:55;;;;;;;9.30;5.50;;;;;;;2.10;73.42;100198.09;129214;1267;114947;-66
2023/02/26 10:00:02;;;;;;;6.10;4.60;;;;;;;2.13;73.98;100205.98;129162;1262;114916;-67
2023/02/26 10:03:25;;;;;;;10.30;4.50;;;;;;;2.19;73.92;100209.77;129143;1284;126923;-66
2023/02/26 10:06:30;;;;;;;7.50;4.40;;;;;;;2.22;74.12;100213.77;128974;1266;115237;-59
2023/02/26 10:09:52;;;;;;;5.60;3.60;;;;;;;2.29;74.03;100215.42;129009;1283;114933;-63
2023/02/26 10:12:55;;;;;;;6.70;4.50;;;;;;;2.38;73.92;100223.52;128872;1271;114817;-61
2023/02/26 10:16:03;;;;;;;9.70;4.50;;;;;;;2.42;73.61;100226.29;129214;1268;115169;-61
2023/02/26 10:19:18;;;;;;;5.70;3.90;;;;;;;2.41;73.43;100227.55;128917;1274;127806;-62
2023/02/26 10:22:30;;;;;;;8.70;5.20;;;;;;;2.45;73.61;100230.64;129355;1268;114878;-63
2023/02/26 10:25:45;;;;;;;13.30;8.00;;;;;;;2.50;72.98;100237.95;129436;1276;114802;-61
2023/02/26 10:29:19;;;;;;;16.70;9.70;;;;;;;2.49;72.74;100240.99;129353;1265;114830;-61
2023/02/26 10:32:48;;;;;;;10.40;5.50;;;;;;;2.52;73.26;100241.63;129286;1257;115363;-63
2023/02/26 10:35:58;;;;;;;8.50;5.00;;;;;;;2.62;73.21;100239.88;128928;1289;128813;-64
2023/02/26 10:39:14;;;;;;;9.60;5.00;;;;;;;2.76;73.21;100245.44;128903;1265;115485;-63
2023/02/26 10:42:30;;;;;;;8.50;5.50;;;;;;;2.91;72.70;100246.92;128813;1266;114928;-61
2023/02/26 10:45:37;;;;;;;9.60;4.50;;;;;;;3.01;72.10;100251.14;129049;1269;114977;-61
2023/02/26 10:48:54;;;;;;;6.70;3.80;;;;;;;3.10;71.99;100254.33;129198;1268;114926;-63
2023/02/26 10:52:00;;;;;;;14.00;7.70;;;;;;;3.19;71.58;100256.97;129027;1286;128421;-63
2023/02/26 10:55:05;;;;;;;8.60;5.30;;;;;;;3.27;71.60;100263.88;129091;1286;114867;-63
2023/02/26 10:58:07;;;;;;;;;;;;;;;3.34;70.86;100267.79;129048;1262;114864;-63
2023/02/26 11:01:19;;;;;;;5.30;4.10;;;;;;;3.41;71.37;100264.83;129374;1266;114725;-63
2023/02/26 11:04:25;;;;;;;7.70;4.70;;;;;;;3.60;71.42;100266.56;129172;1268;114886;-63
2023/02/26 11:07:29;;;;;;;5.30;3.60;;;;;;;3.80;71.01;100265.06;129038;1283;129010;-61
2023/02/26 11:10:51;;;;;;;5.40;4.10;;;;;;;3.99;71.20;100264.30;129041;1278;114830;-63
2023/02/26 11:13:53;;;;;;;9.80;5.20;;;;;;;4.13;70.26;100271.91;129610;1261;114796;-64
2023/02/26 11:16:58;;;;;;;15.80;7.80;;;;;;;4.20;69.87;100271.40;130043;1257;114716;-65
2023/02/26 11:20:14;;;;;;;14.10;5.50;;;;;;;4.25;69.91;100270.04;129712;1254;114800;-65
2023/02/26 11:23:20;;;;;;;8.10;3.70;;;;;;;4.25;69.43;100272.69;129677;1260;127725;-66
2023/02/26 11:26:26;;;;;;;7.70;3.40;;;;;;;4.27;69.02;100273.17;129561;1261;114829;-65
2023/02/26 11:29:37;;;;;;;5.90;3.80;;;;;;;4.23;67.71;100279.82;130039;1256;114808;-64
2023/02/26 11:32:39;;;;;;;6.00;3.50;;;;;;;4.08;67.79;100283.19;129988;1257;114801;-63
2023/02/26 11:35:42;;;;;;;5.30;3.50;;;;;;;3.94;68.12;100284.89;129968;1257;115350;-65
2023/02/26 11:38:51;;;;;;;9.10;4.40;;;;;;;3.85;68.36;100287.73;130079;1254;114722;-63
2023/02/26 11:41:56;;;;;;;5.70;4.00;;;;;;;3.81;68.46;100293.66;129728;1260;116563;-64
2023/02/26 11:44:59;;;;;;;9.60;4.20;;;;;;;3.72;68.59;100300.23;130032;1272;114807;-63
2023/02/26 11:48:13;;;;;;;7.60;4.90;;;;;;;3.64;69.16;100303.38;130003;1259;114878;-64
2023/02/26 11:51:19;;;;;;;10.10;5.00;;;;;;;3.62;69.58;100309.06;130043;1257;114731;-64
2023/02/26 11:54:24;;;;;;;7.40;5.00;;;;;;;3.63;69.45;100318.23;129642;1262;128199;-63
2023/02/26 11:57:29;;;;;;;8.00;4.20;;;;;;;3.62;69.42;100323.89;129955;1259;114802;-65
2023/02/26 12:00:38;;;;;;;5.20;3.60;;;;;;;3.55;69.65;100324.40;130042;1273;115347;-61
2023/02/26 12:03:44;;;;;;;4.20;2.20;;;;;;;3.39;69.74;100321.01;129670;1254;114812;-61
2023/02/26 12:06:50;;;;;;;4.90;3.10;;;;;;;3.28;69.77;100321.23;129823;1275;114819;-60
2023/02/26 12:09:52;;;;;;;9.10;3.90;;;;;;;3.19;70.36;100324.93;129997;1257;127993;-60
2023/02/26 12:13:08;;;;;;;7.20;3.70;;;;;;;3.20;70.68;100329.48;129973;1257;115221;-59
2023/02/26 12:16:46;;;;;;;6.10;3.70;;;;;;;3.34;71.06;100334.52;130053;1254;114800;-62
2023/02/26 12:20:18;;;;;;;3.70;2.80;;;;;;;3.52;70.69;100328.19;129751;1263;114826;-63
2023/02/26 12:23:39;;;;;;;6.70;2.60;;;;;;;3.66;70.82;100322.77;129948;1255;114807;-60
2023/02/26 12:26:56;;;;;;;5.40;2.40;;;;;;;3.74;70.17;100328.60;129932;1273;128789;-62
2023/02/26 12:30:12;;;;;;;9.00;3.70;;;;;;;3.81;70.15;100336.95;129582;1276;115192;-62
2023/02/26 12:33:33;;;;;;;4.80;2.70;;;;;;;3.86;69.44;100343.38;129660;1262;114827;-61
2023/02/26 12:36:52;;;;;;;5.10;2.70;;;;;;;3.78;69.03;100342.99;129581;1262;114940;-62
2023/02/26 12:40:05;;;;;;;5.30;2.80;;;;;;;3.66;69.10;100355.27;129623;1254;114805;-64
2023/02/26 12:43:09;;;;;;;4.40;2.80;;;;;;;3.52;69.69;100361.02;129940;1269;129037;-63
2023/02/26 12:46:28;;;;;;;5.20;2.50;;;;;;;3.34;69.65;100361.54;129978;1261;114753;-62
2023/02/26 12:50:06;;;;;;;6.00;2.70;;;;;;;3.16;70.36;100366.09;129762;1255;114887;-61
2023/02/26 12:53:18;;;;;;;10.10;4.60;;;;;;;3.01;70.70;100367.59;129328;1265;114905;-62
2023/02/26 12:56:54;;;;;;;11.00;5.50;;;;;;;2.90;70.92;100369.70;129355;1265;114932;-63
2023/02/26 13:00:15;;;;;;;;;;;;;;;2.82;71.18;100371.79;129248;1284;128814;-61
2023/02/26 13:03:51;;;;;;;12.50;5.80;;;;;;;2.73;71.23;100368.05;129153;1276;116511;-63
2023/02/26 13:06:56;;;;;;;6.00;2.70;;;;;;;2.72;71.33;100371.25;129057;1263;114930;-63
2023/02/26 13:10:39;;;;;;;7.50;3.80;;;;;;;2.68;70.80;100369.55;129146;1266;114867;-63
2023/02/26 13:13:44;;;;;;;5.30;2.20;;;;;;;2.64;71.23;100376.15;129214;1265;114853;-61
2023/02/26 13:17:01;;;;;;;8.20;3.50;;;;;;;2.70;71.39;100375.34;129189;1284;128916;-61
2023/02/26 13:20:15;;;;;;;4.60;2.70;;;;;;;2.80;71.00;100377.48;129134;1284;115187;-62
2023/02/26 13:23:21;;;;;;;9.30;3.70;;;;;;;2.89;70.86;100382.80;129170;1267;115195;-62
2023/02/26 13:26:25;;;;;;;6.60;3.30;;;;;;;3.05;71.37;100380.40;129152;1273;115461;-63
2023/02/26 13:29:39;;;;;;;5.50;2.90;;;;;;;3.26;71.37;100380.02;129473;1260;114806;-61
2023/02/26 13:32:41;;;;;;;6.10;3.40;;;;;;;3.45;70.99;100386.23;130089;1276;129763;-63
2023/02/26 13:35:44;;;;;;;6.10;3.00;;;;;;;3.57;70.34;100395.02;129976;1276;114750;-62
2023/02/26 13:39:12;;;;;;;5.70;2.60;;;;;;;3.51;70.41;100419.30;129986;1267;114731;-61
2023/02/26 13:42:39;;;;;;;3.00;1.50;;;;;;;3.01;70.93;100443.45;129569;1260;114795;-62
2023/02/26 13:46:06;;;;;;;2.60;1.80;;;;;;;2.39;70.91;100419.52;130017;1267;114706;-62
2023/02/26 13:49:26;;;;;;;5.00;2.20;;;;;;;2.04;71.11;100416.64;129617;1276;126819;-62
2023/02/26 13:52:34;;;;;;;6.30;2.90;;;;;;;1.84;71.47;100425.14;129996;1273;115207;-63
2023/02/26 13:55:44;;;;;;;6.10;3.30;;;;;;;1.76;71.76;100430.52;129829;1260;114831;-62
2023/02/26 13:58:59;;;;;;;6.80;4.50;;;;;;;1.72;72.02;100428.63;129788;1260;114805;-62
2023/02/26 14:02:35;;;;;;;13.20;6.10;;;;;;;1.73;72.49;100427.92;129944;1264;114805;-62
2023/02/26 14:05:40;;;;;;;;;;;;;;;1.75;72.47;100427.52;129970;1260;128942;-62
2023/02/26 14:08:46;;;;;;;9.90;4.10;;;;;;;1.78;73.04;100427.50;129783;1261;114888;-62
2023/02/26 14:11:53;;;;;;;;;;;;;;;1.84;73.27;100426.91;129855;1275;114898;-63
2023/02/26 14:14:59;;;;;;;9.30;4.10;;;;;;;1.85;72.93;100426.89;129760;1257;114840;-62
2023/02/26 14:18:05;;;;;;;6.40;4.00;;;;;;;1.81;73.34;100424.82;130065;1261;114762;-62
2023/02/26 14:21:26;;;;;;;8.10;2.80;;;;;;;1.82;73.65;100425.69;129740;1262;128091;-63
2023/02/26 14:24:35;;;;;;;10.20;3.70;;;;;;;1.81;73.47;100426.06;129820;1276;115196;-61
2023/02/26 14:27:40;;;;;;;6.90;3.40;;;;;;;1.78;73.15;100436.83;130035;1266;114722;-62
2023/02/26 14:30:45;;;;;;;;;;;;;;;1.76;73.32;100443.72;129865;1266;114853;-61